createdAt,value
2019-06-01T00:00:55.250Z,16.63
2019-06-01T00:02:00.617Z,17.07
2019-06-01T00:03:06.685Z,15.77
2019-06-01T00:04:12.651Z,16.47
2019-06-01T00:05:18.493Z,16.53
2019-06-01T00:06:23.867Z,16.43
2019-06-01T00:07:29.783Z,16.37
2019-06-01T00:08:34.946Z,16.73
2019-06-01T00:09:41.033Z,18.17
2019-06-01T00:10:47.733Z,16.03
2019-06-01T00:11:53.663Z,17.00
2019-06-01T00:12:58.924Z,15.80
2019-06-01T00:14:05.013Z,17.33
2019-06-01T00:15:11.238Z,17.33
2019-06-01T00:16:17.105Z,17.17
2019-06-01T00:17:22.338Z,17.37
2019-06-01T00:18:28.212Z,16.90
2019-06-01T00:19:33.447Z,17.20
2019-06-01T00:20:40.075Z,18.10
2019-06-01T00:21:45.485Z,17.23
2019-06-01T00:22:51.800Z,17.53
2019-06-01T00:23:57.006Z,16.70
2019-06-01T00:25:02.948Z,17.63
2019-06-01T00:26:09.194Z,17.33
2019-06-01T00:27:15.244Z,17.00
2019-06-01T00:28:20.589Z,17.47
2019-06-01T00:29:26.521Z,17.70
2019-06-01T00:30:31.813Z,16.97
2019-06-01T00:31:37.726Z,17.20
2019-06-01T00:32:43.086Z,16.87
2019-06-01T00:33:49.592Z,16.93
2019-06-01T00:34:55.023Z,16.90
2019-06-01T00:36:00.970Z,17.17
2019-06-01T00:37:06.217Z,17.83
2019-06-01T00:38:12.177Z,17.47
2019-06-01T00:39:18.497Z,17.53
2019-06-01T00:40:24.573Z,17.20
2019-06-01T00:41:29.849Z,18.60
2019-06-01T00:42:35.739Z,17.40
2019-06-01T00:43:42.100Z,18.03
2019-06-01T00:44:48.508Z,17.90
2019-06-01T00:45:53.848Z,17.80
2019-06-01T00:46:59.675Z,18.33
2019-06-01T00:48:04.873Z,18.13
2019-06-01T00:49:10.689Z,17.67
2019-06-01T00:50:15.911Z,17.47
2019-06-01T00:51:21.807Z,18.57
2019-06-01T00:52:27.052Z,18.43
2019-06-01T00:53:32.913Z,18.43
2019-06-01T00:54:38.160Z,18.90
2019-06-01T00:55:45.857Z,19.43
2019-06-01T00:56:51.696Z,18.70
2019-06-01T00:57:57.630Z,19.20
2019-06-01T00:59:03.016Z,18.47
2019-06-01T01:00:08.961Z,18.47
2019-06-01T01:01:14.358Z,17.60
2019-06-01T01:02:20.199Z,17.97
2019-06-01T01:03:25.568Z,18.67
2019-06-01T01:04:31.378Z,20.73
2019-06-01T01:05:37.731Z,18.37
2019-06-01T01:06:44.455Z,18.93
2019-06-01T01:07:51.259Z,19.10
2019-06-01T01:08:57.243Z,19.57
2019-06-01T01:10:02.500Z,18.70
2019-06-01T01:11:08.481Z,18.80
2019-06-01T01:12:13.777Z,19.10
2019-06-01T01:13:20.815Z,19.30
2019-06-01T01:14:26.178Z,19.00
2019-06-01T01:15:32.177Z,18.87
2019-06-01T01:16:37.547Z,18.07
2019-06-01T01:17:43.451Z,19.17
2019-06-01T01:18:49.749Z,18.83
2019-06-01T01:19:56.011Z,19.33
2019-06-01T01:21:01.249Z,17.60
2019-06-01T01:22:07.410Z,19.53
2019-06-01T01:23:12.657Z,19.13
2019-06-01T01:24:18.624Z,19.37
2019-06-01T01:25:23.909Z,19.37
2019-06-01T01:26:29.765Z,18.67
2019-06-01T01:27:35.014Z,19.47
2019-06-01T01:28:40.811Z,18.77
2019-06-01T01:29:46.823Z,18.80
2019-06-01T01:31:06.916Z,19.07
2019-06-01T01:31:59.542Z,18.87
2019-06-01T01:33:05.457Z,18.77
2019-06-01T01:34:10.672Z,21.10
2019-06-01T01:35:16.641Z,19.90
2019-06-01T01:36:22.904Z,20.13
2019-06-01T01:37:28.787Z,19.93
2019-06-01T01:38:33.944Z,19.77
2019-06-01T01:39:39.754Z,20.27
2019-06-01T01:40:45.091Z,19.13
2019-06-01T01:41:52.092Z,19.23
2019-06-01T01:42:58.776Z,20.30
2019-06-01T01:44:05.858Z,20.50
2019-06-01T01:45:11.389Z,20.83
2019-06-01T01:46:18.303Z,20.77
2019-06-01T01:47:23.679Z,22.40
2019-06-01T01:48:29.551Z,21.93
2019-06-01T01:49:34.730Z,20.83
2019-06-01T01:50:40.442Z,23.40
2019-06-01T01:51:45.746Z,22.93
2019-06-01T01:52:52.754Z,21.93
2019-06-01T01:53:59.054Z,21.97
2019-06-01T01:55:05.289Z,23.80
2019-06-01T01:56:10.649Z,23.53
2019-06-01T01:57:16.487Z,23.93
2019-06-01T01:58:21.885Z,23.63
2019-06-01T01:59:28.871Z,21.97
2019-06-01T02:00:41.458Z,23.70
2019-06-01T02:01:50.438Z,22.43
2019-06-01T02:02:57.951Z,23.13
2019-06-01T02:04:03.781Z,24.13
2019-06-01T02:05:10.033Z,23.27
2019-06-01T02:06:15.875Z,22.97
2019-06-01T02:07:21.196Z,22.57
2019-06-01T02:08:27.024Z,24.53
2019-06-01T02:09:32.262Z,23.97
2019-06-01T02:10:38.184Z,23.27
2019-06-01T02:11:43.362Z,25.17
2019-06-01T02:12:49.236Z,22.97
2019-06-01T02:13:55.590Z,22.60
2019-06-01T02:15:02.173Z,22.83
2019-06-01T02:16:07.894Z,22.50
2019-06-01T02:17:13.757Z,22.43
2019-06-01T02:18:18.997Z,22.40
2019-06-01T02:19:27.850Z,22.17
2019-06-01T02:20:33.391Z,22.70
2019-06-01T02:21:39.255Z,22.90
2019-06-01T02:22:44.446Z,23.13
2019-06-01T02:23:50.327Z,23.77
2019-06-01T02:24:55.851Z,22.07
2019-06-01T02:26:03.303Z,22.30
2019-06-01T02:27:08.588Z,21.97
2019-06-01T02:28:14.416Z,22.63
2019-06-01T02:29:19.618Z,21.87
2019-06-01T02:30:25.582Z,21.40
2019-06-01T02:31:41.618Z,21.60
2019-06-01T02:32:38.270Z,21.67
2019-06-01T02:33:43.536Z,22.03
2019-06-01T02:34:49.447Z,21.03
2019-06-01T02:35:56.274Z,20.70
2019-06-01T02:37:02.436Z,21.43
2019-06-01T02:38:08.802Z,21.87
2019-06-01T02:39:15.050Z,21.20
2019-06-01T02:40:20.621Z,21.10
2019-06-01T02:41:26.502Z,21.30
2019-06-01T02:42:31.753Z,21.63
2019-06-01T02:43:37.604Z,20.67
2019-06-01T02:44:42.882Z,22.17
2019-06-01T02:45:48.850Z,21.77
2019-06-01T02:46:55.388Z,22.17
2019-06-01T02:48:01.694Z,22.50
2019-06-01T02:49:07.659Z,22.00
2019-06-01T02:50:14.455Z,23.00
2019-06-01T02:51:19.746Z,20.50
2019-06-01T02:52:25.744Z,22.30
2019-06-01T02:53:30.951Z,22.33
2019-06-01T02:54:36.872Z,21.40
2019-06-01T02:55:42.171Z,22.23
2019-06-01T02:56:47.968Z,21.00
2019-06-01T02:57:53.252Z,21.77
2019-06-01T02:59:00.268Z,22.67
2019-06-01T03:00:06.971Z,23.40
2019-06-01T03:01:56.758Z,21.77
2019-06-01T03:02:53.490Z,21.87
2019-06-01T03:03:59.660Z,22.27
2019-06-01T03:05:05.796Z,21.20
2019-06-01T03:06:14.312Z,22.37
2019-06-01T03:07:19.689Z,21.87
2019-06-01T03:08:26.091Z,21.97
2019-06-01T03:09:33.681Z,21.90
2019-06-01T03:10:40.746Z,21.83
2019-06-01T03:11:50.402Z,22.13
2019-06-01T03:13:00.045Z,21.17
2019-06-01T03:14:08.810Z,22.10
2019-06-01T03:15:15.898Z,20.37
2019-06-01T03:16:22.767Z,20.43
2019-06-01T03:17:32.225Z,21.93
2019-06-01T03:18:39.906Z,20.57
2019-06-01T03:19:47.593Z,20.80
2019-06-01T03:20:54.166Z,21.70
2019-06-01T03:22:03.749Z,20.27
2019-06-01T03:23:12.089Z,21.80
2019-06-01T03:24:19.392Z,19.73
2019-06-01T03:25:27.872Z,21.07
2019-06-01T03:26:37.613Z,21.30
2019-06-01T03:27:44.869Z,21.57
2019-06-01T03:28:54.141Z,22.50
2019-06-01T03:30:03.936Z,21.43
2019-06-01T03:31:10.504Z,21.57
2019-06-01T03:32:34.262Z,21.60
2019-06-01T03:33:23.305Z,22.33
2019-06-01T03:34:28.615Z,22.53
2019-06-01T03:35:35.301Z,22.93
2019-06-01T03:36:43.502Z,22.27
2019-06-01T03:37:49.508Z,22.43
2019-06-01T03:38:55.071Z,22.70
2019-06-01T03:40:01.106Z,23.23
2019-06-01T03:41:06.531Z,23.67
2019-06-01T03:42:13.277Z,23.30
2019-06-01T03:43:19.061Z,22.30
2019-06-01T03:44:24.920Z,22.70
2019-06-01T03:45:30.228Z,22.03
2019-06-01T03:46:36.138Z,23.20
2019-06-01T03:47:41.442Z,23.23
2019-06-01T03:48:47.231Z,22.83
2019-06-01T03:49:52.439Z,23.40
2019-06-01T03:50:58.359Z,23.20
2019-06-01T03:52:04.749Z,22.87
2019-06-01T03:53:10.609Z,22.27
2019-06-01T03:54:15.787Z,22.30
2019-06-01T03:55:21.634Z,23.87
2019-06-01T03:56:26.875Z,23.03
2019-06-01T03:57:32.717Z,22.87
2019-06-01T03:58:38.181Z,21.10
2019-06-01T03:59:44.046Z,22.37
2019-06-01T04:00:49.352Z,22.20
2019-06-01T04:01:55.113Z,21.57
2019-06-01T04:03:03.618Z,22.60
2019-06-01T04:04:09.434Z,22.83
2019-06-01T04:05:14.714Z,22.53
2019-06-01T04:06:20.582Z,23.50
2019-06-01T04:07:25.846Z,21.57
2019-06-01T04:08:32.112Z,22.73
2019-06-01T04:09:37.294Z,21.57
2019-06-01T04:10:43.549Z,22.63
2019-06-01T04:11:48.746Z,22.20
2019-06-01T04:12:54.695Z,22.40
2019-06-01T04:13:59.935Z,22.53
2019-06-01T04:15:10.233Z,21.37
2019-06-01T04:16:13.134Z,22.67
2019-06-01T04:17:18.982Z,21.93
2019-06-01T04:18:24.245Z,22.30
2019-06-01T04:19:30.050Z,21.97
2019-06-01T04:20:35.281Z,21.47
2019-06-01T04:21:41.055Z,21.67
2019-06-01T04:22:46.219Z,21.83
2019-06-01T04:23:52.122Z,22.00
2019-06-01T04:24:57.383Z,22.20
2019-06-01T04:26:04.151Z,21.47
2019-06-01T04:27:10.208Z,21.90
2019-06-01T04:28:16.122Z,22.07
2019-06-01T04:29:21.230Z,22.00
2019-06-01T04:30:28.423Z,22.10
2019-06-01T04:31:33.676Z,21.80
2019-06-01T04:32:49.389Z,21.57
2019-06-01T04:33:46.415Z,21.50
2019-06-01T04:34:52.271Z,22.30
2019-06-01T04:35:57.556Z,22.10
2019-06-01T04:37:03.593Z,21.97
2019-06-01T04:38:11.231Z,22.13
2019-06-01T04:39:17.078Z,20.27
2019-06-01T04:40:22.296Z,21.73
2019-06-01T04:41:28.194Z,20.13
2019-06-01T04:42:33.457Z,21.47
2019-06-01T04:43:39.327Z,20.57
2019-06-01T04:44:44.744Z,20.83
2019-06-01T04:45:50.646Z,20.23
2019-06-01T04:46:55.834Z,20.97
2019-06-01T04:48:01.598Z,20.10
2019-06-01T04:49:06.781Z,20.30
2019-06-01T04:50:13.126Z,20.20
2019-06-01T04:51:18.439Z,19.60
2019-06-01T04:52:24.282Z,19.97
2019-06-01T04:53:29.731Z,20.63
2019-06-01T04:54:35.661Z,20.37
2019-06-01T04:55:40.948Z,19.40
2019-06-01T04:56:46.810Z,19.60
2019-06-01T04:57:51.994Z,20.80
2019-06-01T04:58:57.782Z,19.73
2019-06-01T05:00:07.947Z,19.33
2019-06-01T05:01:10.937Z,18.57
2019-06-01T05:02:16.357Z,19.73
2019-06-01T05:03:22.211Z,20.03
2019-06-01T05:04:27.450Z,19.77
2019-06-01T05:05:33.231Z,19.77
2019-06-01T05:06:40.953Z,18.67
2019-06-01T05:07:46.878Z,19.70
2019-06-01T05:08:52.228Z,18.77
2019-06-01T05:09:58.053Z,19.43
2019-06-01T05:11:06.575Z,18.53
2019-06-01T05:12:11.385Z,19.27
2019-06-01T05:13:16.847Z,19.63
2019-06-01T05:14:22.722Z,18.87
2019-06-01T05:15:27.951Z,19.83
2019-06-01T05:16:33.727Z,18.83
2019-06-01T05:17:40.672Z,19.07
2019-06-01T05:18:46.594Z,19.57
2019-06-01T05:19:51.846Z,18.17
2019-06-01T05:20:57.685Z,18.20
2019-06-01T05:22:02.905Z,19.13
2019-06-01T05:23:08.753Z,18.40
2019-06-01T05:24:14.781Z,18.10
2019-06-01T05:25:20.755Z,19.27
2019-06-01T05:26:26.019Z,17.87
2019-06-01T05:27:31.978Z,18.33
2019-06-01T05:28:37.177Z,17.60
2019-06-01T05:29:43.093Z,18.27
2019-06-01T05:30:48.434Z,18.30
2019-06-01T05:31:54.330Z,17.37
2019-06-01T05:32:59.595Z,17.60
2019-06-01T05:34:05.479Z,18.23
2019-06-01T05:35:11.779Z,17.20
2019-06-01T05:36:18.328Z,17.67
2019-06-01T05:37:23.610Z,17.17
2019-06-01T05:38:29.547Z,17.47
2019-06-01T05:39:34.846Z,16.67
2019-06-01T05:40:40.785Z,15.97
2019-06-01T05:41:46.078Z,16.23
2019-06-01T05:42:51.910Z,16.23
2019-06-01T05:43:57.221Z,17.60
2019-06-01T05:45:03.081Z,16.40
2019-06-01T05:46:08.352Z,16.23
2019-06-01T05:47:14.302Z,15.97
2019-06-01T05:48:24.759Z,15.27
2019-06-01T05:49:29.509Z,14.63
2019-06-01T05:50:34.862Z,14.43
2019-06-01T05:51:40.658Z,14.83
2019-06-01T05:52:45.932Z,15.17
2019-06-01T05:53:51.879Z,13.77
2019-06-01T05:55:03.152Z,14.07
2019-06-01T05:56:10.462Z,14.43
2019-06-01T05:57:16.729Z,13.67
2019-06-01T05:58:22.894Z,12.40
2019-06-01T05:59:28.195Z,12.87
2019-06-01T06:00:42.722Z,12.90
2019-06-01T06:01:48.020Z,12.57
2019-06-01T06:02:53.914Z,12.60
2019-06-01T06:03:59.270Z,13.67
2019-06-01T06:05:05.432Z,13.13
2019-06-01T06:06:11.711Z,14.47
2019-06-01T06:07:18.783Z,13.17
2019-06-01T06:08:24.390Z,13.57
2019-06-01T06:09:30.259Z,13.07
2019-06-01T06:10:35.490Z,13.33
2019-06-01T06:11:41.298Z,13.53
2019-06-01T06:12:46.554Z,12.90
2019-06-01T06:13:52.598Z,13.20
2019-06-01T06:14:57.821Z,14.30
2019-06-01T06:16:03.646Z,14.67
2019-06-01T06:17:10.690Z,14.03
2019-06-01T06:18:16.337Z,14.10
2019-06-01T06:19:23.481Z,12.90
2019-06-01T06:20:28.993Z,12.87
2019-06-01T06:21:34.259Z,13.97
2019-06-01T06:22:41.291Z,13.47
2019-06-01T06:23:46.684Z,13.10
2019-06-01T06:24:52.584Z,13.47
2019-06-01T06:25:57.815Z,14.00
2019-06-01T06:27:03.663Z,13.57
2019-06-01T06:28:08.918Z,13.37
2019-06-01T06:29:14.790Z,14.13
2019-06-01T06:30:21.006Z,13.30
2019-06-01T06:31:26.879Z,13.57
2019-06-01T06:32:32.212Z,13.50
2019-06-01T06:33:39.365Z,13.10
2019-06-01T06:34:44.671Z,12.67
2019-06-01T06:35:52.485Z,12.43
2019-06-01T06:36:57.674Z,12.57
2019-06-01T06:38:03.532Z,12.33
2019-06-01T06:39:08.911Z,12.10
2019-06-01T06:40:15.967Z,11.77
2019-06-01T06:41:22.280Z,12.13
2019-06-01T06:42:28.858Z,11.33
2019-06-01T06:43:34.038Z,12.27
2019-06-01T06:44:39.897Z,11.17
2019-06-01T06:45:45.287Z,11.63
2019-06-01T06:46:51.039Z,11.23
2019-06-01T06:47:56.214Z,11.57
2019-06-01T06:49:02.024Z,10.97
2019-06-01T06:50:08.569Z,10.83
2019-06-01T06:51:15.134Z,10.97
2019-06-01T06:52:21.506Z,11.50
2019-06-01T06:53:35.116Z,10.03
2019-06-01T06:54:35.484Z,10.80
2019-06-01T06:55:41.262Z,10.50
2019-06-01T06:56:46.544Z,9.93
2019-06-01T06:57:52.371Z,9.73
2019-06-01T06:58:57.749Z,9.30
2019-06-01T07:00:03.649Z,9.63
2019-06-01T07:01:12.016Z,10.00
2019-06-01T07:02:16.785Z,9.57
2019-06-01T07:03:23.116Z,8.90
2019-06-01T07:04:29.091Z,8.80
2019-06-01T07:05:34.404Z,9.00
2019-06-01T07:06:40.344Z,8.90
2019-06-01T07:07:45.629Z,8.27
2019-06-01T07:08:51.418Z,8.57
2019-06-01T07:09:56.679Z,8.50
2019-06-01T07:11:02.574Z,8.07
2019-06-01T07:12:07.913Z,8.13
2019-06-01T07:13:13.640Z,8.97
2019-06-01T07:14:19.276Z,8.70
2019-06-01T07:15:25.528Z,8.57
2019-06-01T07:16:31.884Z,15.57
2019-06-01T07:17:37.905Z,8.53
2019-06-01T07:18:43.095Z,9.30
2019-06-01T07:19:48.983Z,9.30
2019-06-01T07:20:54.205Z,11.97
2019-06-01T07:22:00.360Z,7.53
2019-06-01T07:23:05.599Z,7.50
2019-06-01T07:24:11.358Z,7.40
2019-06-01T07:25:16.595Z,7.50
2019-06-01T07:26:22.494Z,7.63
2019-06-01T07:27:28.316Z,8.77
2019-06-01T07:28:35.349Z,7.10
2019-06-01T07:29:40.502Z,7.63
2019-06-01T07:30:50.462Z,7.20
2019-06-01T07:31:53.234Z,7.20
2019-06-01T07:32:59.042Z,8.27
2019-06-01T07:34:04.265Z,7.60
2019-06-01T07:35:10.409Z,23.80
2019-06-01T07:36:15.661Z,13.80
2019-06-01T07:37:22.564Z,13.43
2019-06-01T07:38:28.950Z,8.67
2019-06-01T07:39:34.917Z,12.97
2019-06-01T07:40:40.212Z,7.77
2019-06-01T07:41:46.050Z,7.57
2019-06-01T07:42:51.441Z,7.50
2019-06-01T07:43:57.470Z,7.03
2019-06-01T07:45:02.702Z,7.07
2019-06-01T07:46:08.590Z,7.20
2019-06-01T07:47:13.931Z,7.93
2019-06-01T07:48:20.959Z,8.37
2019-06-01T07:49:26.984Z,7.93
2019-06-01T07:50:32.882Z,8.47
2019-06-01T07:51:38.204Z,7.80
2019-06-01T07:52:44.114Z,6.73
2019-06-01T07:53:49.417Z,7.37
2019-06-01T07:54:55.334Z,7.13
2019-06-01T07:56:00.575Z,7.40
2019-06-01T07:57:06.528Z,6.33
2019-06-01T07:58:12.907Z,7.13
2019-06-01T07:59:18.814Z,6.90
2019-06-01T08:00:25.563Z,6.90
2019-06-01T08:01:34.777Z,6.70
2019-06-01T08:02:39.906Z,6.90
2019-06-01T08:03:46.000Z,6.50
2019-06-01T08:04:54.490Z,7.17
2019-06-01T08:06:02.082Z,6.80
2019-06-01T08:07:07.348Z,6.10
2019-06-01T08:08:13.318Z,6.57
2019-06-01T08:09:18.675Z,6.33
2019-06-01T08:10:26.020Z,6.20
2019-06-01T08:11:34.692Z,6.03
2019-06-01T08:12:39.985Z,5.60
2019-06-01T08:13:45.441Z,6.07
2019-06-01T08:14:51.391Z,6.33
2019-06-01T08:15:59.502Z,5.80
2019-06-01T08:17:05.477Z,6.70
2019-06-01T08:18:11.054Z,6.90
2019-06-01T08:19:17.106Z,6.30
2019-06-01T08:20:23.884Z,5.97
2019-06-01T08:21:32.725Z,5.73
2019-06-01T08:22:38.139Z,5.40
2019-06-01T08:23:44.123Z,6.90
2019-06-01T08:24:49.572Z,5.67
2019-06-01T08:25:55.538Z,5.30
2019-06-01T08:27:00.954Z,4.90
2019-06-01T08:28:08.723Z,5.43
2019-06-01T08:29:14.010Z,5.33
2019-06-01T08:30:22.693Z,5.37
2019-06-01T08:31:32.262Z,6.27
2019-06-01T08:32:38.717Z,4.60
2019-06-01T08:33:45.081Z,5.03
2019-06-01T08:35:04.804Z,5.60
2019-06-01T08:35:58.545Z,6.10
2019-06-01T08:37:05.576Z,5.37
2019-06-01T08:38:11.071Z,5.40
2019-06-01T08:39:16.960Z,5.77
2019-06-01T08:40:23.309Z,4.80
2019-06-01T08:41:29.838Z,5.17
2019-06-01T08:42:35.137Z,5.37
2019-06-01T08:43:41.139Z,5.50
2019-06-01T08:44:46.354Z,5.47
2019-06-01T08:45:52.309Z,6.03
2019-06-01T08:46:57.630Z,5.47
2019-06-01T08:48:03.475Z,5.40
2019-06-01T08:49:08.836Z,6.23
2019-06-01T08:50:14.883Z,5.67
2019-06-01T08:51:20.255Z,5.53
2019-06-01T08:52:28.072Z,5.93
2019-06-01T08:53:34.239Z,6.30
2019-06-01T08:54:40.262Z,6.27
2019-06-01T08:55:45.503Z,6.20
2019-06-01T08:56:51.386Z,5.60
2019-06-01T08:57:56.701Z,5.50
2019-06-01T08:59:02.728Z,6.20
2019-06-01T09:00:09.466Z,5.83
2019-06-01T09:01:15.309Z,5.50
2019-06-01T09:02:20.720Z,6.07
2019-06-01T09:03:27.757Z,5.23
2019-06-01T09:04:33.013Z,5.50
2019-06-01T09:05:38.784Z,5.43
2019-06-01T09:06:43.969Z,6.03
2019-06-01T09:07:49.802Z,5.57
2019-06-01T09:08:55.628Z,6.17
2019-06-01T09:10:01.607Z,5.60
2019-06-01T09:11:07.085Z,6.20
2019-06-01T09:12:12.917Z,5.63
2019-06-01T09:13:18.177Z,5.80
2019-06-01T09:14:25.157Z,6.03
2019-06-01T09:15:31.430Z,5.73
2019-06-01T09:16:37.438Z,5.27
2019-06-01T09:17:42.723Z,5.83
2019-06-01T09:18:48.582Z,5.30
2019-06-01T09:19:53.850Z,5.30
2019-06-01T09:20:59.785Z,5.67
2019-06-01T09:22:05.082Z,5.50
2019-06-01T09:23:10.802Z,5.47
2019-06-01T09:24:16.132Z,5.40
2019-06-01T09:25:21.972Z,5.53
2019-06-01T09:26:27.730Z,5.20
2019-06-01T09:27:33.929Z,5.87
2019-06-01T09:28:39.348Z,5.60
2019-06-01T09:29:45.099Z,4.87
2019-06-01T09:30:50.421Z,5.93
2019-06-01T09:31:56.324Z,5.50
2019-06-01T09:33:01.601Z,5.57
2019-06-01T09:34:07.420Z,5.27
2019-06-01T09:35:12.783Z,5.57
2019-06-01T09:36:18.526Z,4.93
2019-06-01T09:37:23.709Z,5.57
2019-06-01T09:38:29.703Z,5.10
2019-06-01T09:39:35.130Z,5.07
2019-06-01T09:40:40.933Z,5.80
2019-06-01T09:41:46.332Z,6.50
2019-06-01T09:42:52.076Z,5.83
2019-06-01T09:43:57.360Z,5.83
2019-06-01T09:45:03.479Z,6.10
2019-06-01T09:46:08.719Z,5.67
2019-06-01T09:47:15.007Z,5.97
2019-06-01T09:48:21.239Z,5.33
2019-06-01T09:49:29.142Z,5.47
2019-06-01T09:50:35.523Z,5.20
2019-06-01T09:51:53.407Z,5.93
2019-06-01T09:52:59.299Z,5.47
2019-06-01T09:54:06.790Z,4.63
2019-06-01T09:55:12.236Z,4.67
2019-06-01T09:56:18.157Z,5.47
2019-06-01T09:57:23.345Z,6.20
2019-06-01T09:58:30.171Z,6.50
2019-06-01T09:59:36.024Z,5.67
2019-06-01T10:00:43.966Z,6.37
2019-06-01T10:02:20.451Z,5.50
2019-06-01T10:03:28.111Z,5.07
2019-06-01T10:04:34.400Z,5.73
2019-06-01T10:05:40.597Z,5.50
2019-06-01T10:06:45.947Z,5.10
2019-06-01T10:07:51.754Z,4.73
2019-06-01T10:09:07.445Z,4.77
2019-06-01T10:10:13.393Z,4.77
2019-06-01T10:11:18.619Z,4.80
2019-06-01T10:12:24.567Z,5.03
2019-06-01T10:13:32.973Z,5.20
2019-06-01T10:14:39.398Z,5.47
2019-06-01T10:15:47.579Z,5.50
2019-06-01T10:16:53.308Z,5.80
2019-06-01T10:17:58.544Z,5.30
2019-06-01T10:19:04.436Z,5.63
2019-06-01T10:20:09.996Z,5.30
2019-06-01T10:21:15.838Z,5.07
2019-06-01T10:22:21.124Z,4.70
2019-06-01T10:23:27.022Z,5.20
2019-06-01T10:24:33.048Z,4.87
2019-06-01T10:25:39.032Z,4.87
2019-06-01T10:26:44.274Z,5.20
2019-06-01T10:27:50.110Z,5.07
2019-06-01T10:28:55.406Z,4.83
2019-06-01T10:30:01.393Z,4.50
2019-06-01T10:31:07.843Z,4.50
2019-06-01T10:32:13.753Z,5.47
2019-06-01T10:33:19.055Z,5.63
2019-06-01T10:34:24.814Z,5.43
2019-06-01T10:35:32.856Z,5.17
2019-06-01T10:36:39.025Z,4.90
2019-06-01T10:37:45.288Z,5.60
2019-06-01T10:38:51.140Z,5.93
2019-06-01T10:39:56.360Z,6.10
2019-06-01T10:41:02.265Z,5.87
2019-06-01T10:42:07.553Z,5.50
2019-06-01T10:43:13.319Z,6.13
2019-06-01T10:44:18.659Z,5.50
2019-06-01T10:45:24.437Z,5.50
2019-06-01T10:46:29.646Z,5.73
2019-06-01T10:47:35.945Z,6.00
2019-06-01T10:48:47.079Z,5.73
2019-06-01T10:49:52.848Z,5.67
2019-06-01T10:50:57.975Z,5.30
2019-06-01T10:52:03.726Z,4.57
2019-06-01T10:53:10.173Z,4.80
2019-06-01T10:54:16.541Z,4.63
2019-06-01T10:55:21.947Z,5.00
2019-06-01T10:56:32.317Z,4.87
2019-06-01T10:57:40.628Z,4.73
2019-06-01T10:59:00.073Z,4.73
2019-06-01T10:59:59.125Z,5.70
2019-06-01T11:01:05.100Z,5.17
2019-06-01T11:02:12.724Z,5.10
2019-06-01T11:03:19.103Z,5.80
2019-06-01T11:04:27.261Z,6.07
2019-06-01T11:05:34.909Z,6.70
2019-06-01T11:06:45.170Z,7.23
2019-06-01T11:07:49.079Z,6.60
2019-06-01T11:08:54.890Z,5.90
2019-06-01T11:10:00.813Z,5.53
2019-06-01T11:11:07.158Z,5.07
2019-06-01T11:12:12.981Z,5.00
2019-06-01T11:13:18.518Z,4.83
2019-06-01T11:14:24.406Z,4.50
2019-06-01T11:15:29.543Z,4.30
2019-06-01T11:16:35.313Z,4.63
2019-06-01T11:17:41.229Z,4.50
2019-06-01T11:18:47.934Z,4.57
2019-06-01T11:19:53.460Z,5.00
2019-06-01T11:20:59.319Z,4.33
2019-06-01T11:22:08.012Z,3.73
2019-06-01T11:23:13.795Z,5.37
2019-06-01T11:24:19.138Z,5.40
2019-06-01T11:25:25.018Z,5.07
2019-06-01T11:26:30.502Z,5.60
2019-06-01T11:27:37.804Z,5.20
2019-06-01T11:28:44.379Z,6.83
2019-06-01T11:29:51.782Z,5.17
2019-06-01T11:31:01.231Z,4.67
2019-06-01T11:32:07.104Z,4.47
2019-06-01T11:33:12.447Z,5.70
2019-06-01T11:34:21.162Z,4.83
2019-06-01T11:35:27.248Z,4.50
2019-06-01T11:36:34.256Z,4.10
2019-06-01T11:37:40.407Z,5.50
2019-06-01T11:38:46.743Z,4.40
2019-06-01T11:39:56.759Z,4.33
2019-06-01T11:41:02.835Z,4.20
2019-06-01T11:42:08.529Z,4.60
2019-06-01T11:43:14.421Z,4.47
2019-06-01T11:44:20.802Z,4.37
2019-06-01T11:45:27.358Z,5.27
2019-06-01T11:46:34.639Z,4.83
2019-06-01T11:47:42.952Z,4.33
2019-06-01T11:48:48.487Z,4.47
2019-06-01T11:49:56.998Z,4.23
2019-06-01T11:51:02.248Z,4.47
2019-06-01T11:52:08.319Z,4.20
2019-06-01T11:53:13.916Z,4.13
2019-06-01T11:54:21.340Z,3.87
2019-06-01T11:55:29.863Z,4.63
2019-06-01T11:56:37.174Z,4.00
2019-06-01T11:57:43.489Z,4.10
2019-06-01T11:58:49.391Z,4.57
2019-06-01T11:59:55.815Z,4.30
2019-06-01T12:01:01.693Z,3.80
2019-06-01T12:02:07.058Z,4.00
2019-06-01T12:03:14.483Z,3.40
2019-06-01T12:04:22.084Z,3.60
2019-06-01T12:05:28.197Z,4.00
2019-06-01T12:06:33.801Z,3.40
2019-06-01T12:07:40.019Z,3.77
2019-06-01T12:08:46.427Z,3.33
2019-06-01T12:09:53.333Z,3.40
2019-06-01T12:10:58.642Z,3.80
2019-06-01T12:12:04.477Z,4.00
2019-06-01T12:13:09.666Z,4.53
2019-06-01T12:14:15.505Z,4.37
2019-06-01T12:15:21.771Z,3.75
2019-06-01T12:16:31.174Z,3.60
2019-06-01T12:17:38.721Z,3.87
2019-06-01T12:18:46.994Z,3.50
2019-06-01T12:19:52.659Z,3.47
2019-06-01T12:21:00.013Z,3.27
2019-06-01T12:22:05.643Z,3.23
2019-06-01T12:23:13.215Z,3.03
2019-06-01T12:24:19.021Z,3.20
2019-06-01T12:25:28.768Z,3.30
2019-06-01T12:26:35.136Z,2.97
2019-06-01T12:27:41.695Z,3.70
2019-06-01T12:28:47.917Z,3.60
2019-06-01T12:29:55.018Z,3.70
2019-06-01T12:31:00.526Z,3.03
2019-06-01T12:32:06.411Z,2.98
2019-06-01T12:33:12.473Z,3.87
2019-06-01T12:34:19.830Z,3.70
2019-06-01T12:35:25.583Z,3.50
2019-06-01T12:36:35.192Z,3.57
2019-06-01T12:38:00.883Z,3.03
2019-06-01T12:38:53.813Z,3.60
2019-06-01T12:40:00.145Z,3.50
2019-06-01T12:41:06.147Z,3.53
2019-06-01T12:42:11.690Z,3.20
2019-06-01T12:43:21.167Z,3.30
2019-06-01T12:44:26.734Z,3.47
2019-06-01T12:45:33.944Z,3.43
2019-06-01T12:46:39.826Z,3.50
2019-06-01T12:47:49.626Z,3.00
2019-06-01T12:48:52.950Z,3.33
2019-06-01T12:50:07.885Z,3.70
2019-06-01T12:51:17.297Z,2.70
2019-06-01T12:52:23.325Z,2.90
2019-06-01T12:53:29.683Z,3.70
2019-06-01T12:54:38.426Z,3.67
2019-06-01T12:55:46.680Z,3.13
2019-06-01T12:56:53.869Z,2.93
2019-06-01T12:57:59.144Z,2.87
2019-06-01T12:59:07.100Z,2.90
2019-06-01T13:00:18.902Z,5.00
2019-06-01T13:01:24.880Z,3.80
2019-06-01T13:02:30.411Z,3.67
2019-06-01T13:03:38.841Z,4.40
2019-06-01T13:04:44.914Z,4.83
2019-06-01T13:05:51.913Z,3.40
2019-06-01T13:06:57.882Z,3.62
2019-06-01T13:08:37.999Z,5.00
2019-06-01T13:10:57.681Z,4.43
2019-06-01T13:12:25.753Z,4.30
2019-06-01T13:14:04.037Z,3.80
2019-06-01T13:15:37.950Z,3.83
2019-06-01T13:17:02.509Z,3.77
2019-06-01T13:18:01.241Z,3.50
2019-06-01T13:19:51.573Z,3.40
2019-06-01T13:21:20.761Z,3.10
2019-06-01T13:22:51.917Z,3.27
2019-06-01T13:23:57.747Z,2.83
2019-06-01T13:25:07.477Z,3.23
2019-06-01T13:26:50.184Z,2.53
2019-06-01T13:28:10.607Z,2.60
2019-06-01T13:29:53.009Z,2.80
2019-06-01T13:31:01.106Z,2.80
2019-06-01T13:32:08.915Z,2.40
2019-06-01T13:33:30.030Z,2.70
2019-06-01T13:34:42.595Z,2.70
2019-06-01T13:36:29.272Z,2.40
2019-06-01T13:38:12.207Z,2.93
2019-06-01T13:39:32.689Z,2.83
2019-06-01T13:40:46.897Z,3.00
2019-06-01T13:42:27.949Z,2.70
2019-06-01T13:43:45.194Z,2.90
2019-06-01T13:45:47.763Z,2.73
2019-06-01T13:47:02.269Z,3.20
2019-06-01T13:48:45.642Z,3.00
2019-06-01T13:50:10.124Z,3.20
2019-06-01T13:51:37.209Z,2.80
2019-06-01T13:52:52.535Z,3.63
2019-06-01T13:53:59.542Z,3.00
2019-06-01T13:55:06.661Z,2.87
2019-06-01T13:56:18.369Z,3.00
2019-06-01T13:57:29.500Z,2.80
2019-06-01T13:58:48.173Z,2.20
2019-06-01T13:59:59.292Z,2.90
2019-06-01T14:01:07.549Z,3.17
2019-06-01T14:02:16.201Z,2.40
2019-06-01T14:03:36.267Z,2.90
2019-06-01T14:04:54.255Z,2.80
2019-06-01T14:06:01.106Z,3.10
2019-06-01T14:07:06.459Z,2.63
2019-06-01T14:08:28.075Z,2.90
2019-06-01T14:09:22.009Z,2.50
2019-06-01T14:10:27.773Z,2.63
2019-06-01T14:11:33.033Z,2.50
2019-06-01T14:12:38.966Z,2.50
2019-06-01T14:13:45.284Z,2.37
2019-06-01T14:14:51.534Z,2.77
2019-06-01T14:15:56.798Z,2.60
2019-06-01T14:17:03.817Z,2.53
2019-06-01T14:18:09.101Z,2.20
2019-06-01T14:19:15.790Z,3.10
2019-06-01T14:20:21.466Z,2.40
2019-06-01T14:21:27.329Z,2.27
2019-06-01T14:22:32.473Z,2.17
2019-06-01T14:23:38.291Z,2.13
2019-06-01T14:24:45.614Z,2.23
2019-06-01T14:25:50.707Z,2.43
2019-06-01T14:26:56.334Z,2.43
2019-06-01T14:28:02.091Z,2.40
2019-06-01T14:29:07.364Z,2.30
2019-06-01T14:30:13.529Z,2.50
2019-06-01T14:31:19.848Z,2.23
2019-06-01T14:32:25.654Z,3.27
2019-06-01T14:33:30.884Z,2.30
2019-06-01T14:34:36.686Z,4.53
2019-06-01T14:35:54.875Z,2.40
2019-06-01T14:37:08.411Z,2.63
2019-06-01T14:38:17.386Z,2.83
2019-06-01T14:39:25.234Z,2.57
2019-06-01T14:40:32.283Z,2.77
2019-06-01T14:41:38.173Z,2.50